sensor_id;sensor_type;location;lat;lon;timestamp;pressure;altitude;pressure_sealevel;temperature;humidity
20860;BME280;10590;48.154;11.514;2023-08-21T00:04:37;96178.88;;;21.34;73.31
20860;BME280;10590;48.154;11.514;2023-08-21T00:09:59;96179.09;;;21.22;74.72
20860;BME280;10590;48.154;11.514;2023-08-21T00:15:20;96168.13;;;21.45;73.57
20860;BME280;10590;48.154;11.514;2023-08-21T00:20:44;96169.31;;;21.14;74.50
20860;BME280;10590;48.154;11.514;2023-08-21T00:26:05;96161.19;;;21.17;74.55
20860;BME280;10590;48.154;11.514;2023-08-21T00:31:27;96168.56;;;21.17;74.20
20860;BME280;10590;48.154;11.514;2023-08-21T00:36:50;96172.47;;;21.19;74.03
20860;BME280;10590;48.154;11.514;2023-08-21T00:42:12;96165.47;;;21.18;74.14
20860;BME280;10590;48.154;11.514;2023-08-21T00:47:34;96159.59;;;21.13;73.44
20860;BME280;10590;48.154;11.514;2023-08-21T00:52:57;96165.31;;;21.04;72.40
20860;BME280;10590;48.154;11.514;2023-08-21T00:58:19;96150.88;;;20.96;73.88
20860;BME280;10590;48.154;11.514;2023-08-21T01:03:41;96156.56;;;20.88;73.69
20860;BME280;10590;48.154;11.514;2023-08-21T01:09:08;96139.00;;;20.78;73.51
20860;BME280;10590;48.154;11.514;2023-08-21T01:14:39;96161.31;;;20.94;73.51
20860;BME280;10590;48.154;11.514;2023-08-21T01:20:07;96160.91;;;20.66;73.97
20860;BME280;10590;48.154;11.514;2023-08-21T01:25:30;96159.38;;;20.16;76.50
20860;BME280;10590;48.154;11.514;2023-08-21T01:30:58;96157.31;;;19.86;78.20
20860;BME280;10590;48.154;11.514;2023-08-21T01:36:21;96136.19;;;20.18;76.73
20860;BME280;10590;48.154;11.514;2023-08-21T01:41:44;96152.72;;;20.36;74.75
20860;BME280;10590;48.154;11.514;2023-08-21T01:47:06;96165.25;;;20.44;74.62
20860;BME280;10590;48.154;11.514;2023-08-21T01:52:28;96162.97;;;20.46;73.44
20860;BME280;10590;48.154;11.514;2023-08-21T01:57:51;96165.72;;;20.50;73.43
20860;BME280;10590;48.154;11.514;2023-08-21T02:03:13;96166.09;;;20.48;73.03
20860;BME280;10590;48.154;11.514;2023-08-21T02:08:35;96168.56;;;20.34;73.64
20860;BME280;10590;48.154;11.514;2023-08-21T02:13:58;96151.91;;;20.09;73.89
20860;BME280;10590;48.154;11.514;2023-08-21T02:19:19;96180.03;;;20.01;75.21
20860;BME280;10590;48.154;11.514;2023-08-21T02:24:41;96146.38;;;20.02;74.10
20860;BME280;10590;48.154;11.514;2023-08-21T02:30:05;96160.81;;;20.10;74.35
20860;BME280;10590;48.154;11.514;2023-08-21T02:35:27;96168.47;;;20.04;74.92
20860;BME280;10590;48.154;11.514;2023-08-21T02:40:49;96169.47;;;19.73;76.25
20860;BME280;10590;48.154;11.514;2023-08-21T02:46:12;96172.16;;;19.12;79.39
20860;BME280;10590;48.154;11.514;2023-08-21T02:51:33;96178.06;;;19.36;79.37
20860;BME280;10590;48.154;11.514;2023-08-21T02:56:55;96155.34;;;19.41;77.79
20860;BME280;10590;48.154;11.514;2023-08-21T03:02:18;96188.38;;;18.92;81.09
20860;BME280;10590;48.154;11.514;2023-08-21T03:07:40;96179.00;;;18.70;82.62
20860;BME280;10590;48.154;11.514;2023-08-21T03:13:02;96185.41;;;19.17;80.75
20860;BME280;10590;48.154;11.514;2023-08-21T03:18:25;96187.81;;;19.41;79.73
20860;BME280;10590;48.154;11.514;2023-08-21T03:23:46;96197.94;;;19.44;79.83
20860;BME280;10590;48.154;11.514;2023-08-21T03:29:08;96191.94;;;19.35;79.61
20860;BME280;10590;48.154;11.514;2023-08-21T03:34:31;96190.31;;;19.30;79.86
20860;BME280;10590;48.154;11.514;2023-08-21T03:39:52;96190.81;;;19.17;80.93
20860;BME280;10590;48.154;11.514;2023-08-21T03:45:14;96198.69;;;18.87;82.37
20860;BME280;10590;48.154;11.514;2023-08-21T03:50:39;96215.06;;;18.43;85.34
20860;BME280;10590;48.154;11.514;2023-08-21T03:56:00;96208.88;;;18.93;82.65
20860;BME280;10590;48.154;11.514;2023-08-21T04:01:22;96201.25;;;18.99;82.62
20860;BME280;10590;48.154;11.514;2023-08-21T04:06:45;96215.72;;;19.06;81.91
20860;BME280;10590;48.154;11.514;2023-08-21T04:12:07;96206.06;;;18.55;84.28
20860;BME280;10590;48.154;11.514;2023-08-21T04:17:29;96189.13;;;18.73;83.19
20860;BME280;10590;48.154;11.514;2023-08-21T04:22:52;96211.22;;;18.95;82.77
20860;BME280;10590;48.154;11.514;2023-08-21T04:28:14;96206.31;;;19.00;82.53
20860;BME280;10590;48.154;11.514;2023-08-21T04:33:35;96208.94;;;18.97;82.55
20860;BME280;10590;48.154;11.514;2023-08-21T04:38:59;96211.44;;;19.05;82.01
20860;BME280;10590;48.154;11.514;2023-08-21T04:44:21;96216.31;;;19.16;81.23
20860;BME280;10590;48.154;11.514;2023-08-21T04:49:42;96224.00;;;19.33;81.04
20860;BME280;10590;48.154;11.514;2023-08-21T04:55:06;96224.44;;;19.54;80.24
20860;BME280;10590;48.154;11.514;2023-08-21T05:00:28;96207.09;;;19.01;82.73
20860;BME280;10590;48.154;11.514;2023-08-21T05:05:53;96225.13;;;19.70;79.79
20860;BME280;10590;48.154;11.514;2023-08-21T05:11:16;96222.97;;;19.99;78.99
20860;BME280;10590;48.154;11.514;2023-08-21T05:16:38;96221.16;;;19.64;80.94
20860;BME280;10590;48.154;11.514;2023-08-21T05:22:00;96231.19;;;19.64;80.99
20860;BME280;10590;48.154;11.514;2023-08-21T05:27:23;96233.38;;;20.43;77.51
20860;BME280;10590;48.154;11.514;2023-08-21T05:32:44;96214.94;;;20.52;77.39
20860;BME280;10590;48.154;11.514;2023-08-21T05:38:06;96231.63;;;21.07;74.29
20860;BME280;10590;48.154;11.514;2023-08-21T05:43:29;96225.69;;;21.24;72.72
20860;BME280;10590;48.154;11.514;2023-08-21T05:48:51;96237.47;;;21.69;71.15
20860;BME280;10590;48.154;11.514;2023-08-21T05:54:13;96240.06;;;21.95;69.71
20860;BME280;10590;48.154;11.514;2023-08-21T05:59:43;96249.28;;;22.20;67.87
20860;BME280;10590;48.154;11.514;2023-08-21T06:05:05;96250.63;;;22.44;66.55
20860;BME280;10590;48.154;11.514;2023-08-21T06:10:27;96242.66;;;22.62;65.58
20860;BME280;10590;48.154;11.514;2023-08-21T06:15:50;96242.84;;;22.87;65.90
20860;BME280;10590;48.154;11.514;2023-08-21T06:21:11;96253.06;;;23.84;62.11
20860;BME280;10590;48.154;11.514;2023-08-21T06:26:33;96260.97;;;24.78;58.04
20860;BME280;10590;48.154;11.514;2023-08-21T06:31:56;96253.59;;;24.47;59.95
20860;BME280;10590;48.154;11.514;2023-08-21T06:37:18;96251.09;;;23.77;61.96
20860;BME280;10590;48.154;11.514;2023-08-21T06:42:39;96255.47;;;24.25;60.37
20860;BME280;10590;48.154;11.514;2023-08-21T06:48:03;96253.19;;;24.52;59.38
20860;BME280;10590;48.154;11.514;2023-08-21T06:53:24;96258.25;;;24.74;59.31
20860;BME280;10590;48.154;11.514;2023-08-21T06:58:46;96258.41;;;26.49;52.49
20860;BME280;10590;48.154;11.514;2023-08-21T07:04:09;96259.16;;;26.53;53.84
20860;BME280;10590;48.154;11.514;2023-08-21T07:09:31;96260.03;;;27.67;50.17
20860;BME280;10590;48.154;11.514;2023-08-21T07:14:52;96257.69;;;26.86;51.36
20860;BME280;10590;48.154;11.514;2023-08-21T07:20:16;96264.63;;;27.77;48.53
20860;BME280;10590;48.154;11.514;2023-08-21T07:25:37;96272.25;;;27.24;50.77
20860;BME280;10590;48.154;11.514;2023-08-21T07:30:59;96268.50;;;27.08;49.95
20860;BME280;10590;48.154;11.514;2023-08-21T07:36:22;96260.63;;;27.13;50.18
20860;BME280;10590;48.154;11.514;2023-08-21T07:41:44;96262.34;;;27.34;50.45
20860;BME280;10590;48.154;11.514;2023-08-21T07:47:06;96267.19;;;27.91;49.50
20860;BME280;10590;48.154;11.514;2023-08-21T07:52:29;96270.44;;;28.67;47.34
20860;BME280;10590;48.154;11.514;2023-08-21T07:57:50;96266.44;;;28.44;46.83
20860;BME280;10590;48.154;11.514;2023-08-21T08:03:12;96256.91;;;27.99;48.85
20860;BME280;10590;48.154;11.514;2023-08-21T08:08:36;96258.50;;;30.03;42.87
20860;BME280;10590;48.154;11.514;2023-08-21T08:13:57;96261.66;;;31.35;40.42
20860;BME280;10590;48.154;11.514;2023-08-21T08:19:19;96272.03;;;30.98;39.77
20860;BME280;10590;48.154;11.514;2023-08-21T08:24:42;96264.38;;;31.22;39.50
20860;BME280;10590;48.154;11.514;2023-08-21T08:30:05;96261.38;;;31.87;38.55
20860;BME280;10590;48.154;11.514;2023-08-21T08:35:27;96256.88;;;33.42;35.70
20860;BME280;10590;48.154;11.514;2023-08-21T08:40:51;96268.44;;;33.84;33.09
20860;BME280;10590;48.154;11.514;2023-08-21T08:46:13;96261.88;;;35.66;29.01
20860;BME280;10590;48.154;11.514;2023-08-21T08:51:35;96258.50;;;35.62;30.34
20860;BME280;10590;48.154;11.514;2023-08-21T08:57:01;96259.25;;;36.42;27.82
20860;BME280;10590;48.154;11.514;2023-08-21T09:02:24;96265.59;;;37.47;26.39
20860;BME280;10590;48.154;11.514;2023-08-21T09:08:02;96260.78;;;36.76;26.76
20860;BME280;10590;48.154;11.514;2023-08-21T09:13:25;96262.03;;;35.72;28.72
20860;BME280;10590;48.154;11.514;2023-08-21T09:18:47;96251.88;;;36.20;28.51
20860;BME280;10590;48.154;11.514;2023-08-21T09:24:09;96258.44;;;35.99;27.18
20860;BME280;10590;48.154;11.514;2023-08-21T09:29:39;96255.69;;;36.41;25.22
20860;BME280;10590;48.154;11.514;2023-08-21T09:35:02;96263.88;;;37.02;25.11
20860;BME280;10590;48.154;11.514;2023-08-21T09:40:24;96243.97;;;37.18;26.04
20860;BME280;10590;48.154;11.514;2023-08-21T09:45:48;96242.13;;;39.06;24.04
20860;BME280;10590;48.154;11.514;2023-08-21T09:51:10;96241.06;;;37.89;24.99
20860;BME280;10590;48.154;11.514;2023-08-21T09:56:33;96241.22;;;39.15;24.66
20860;BME280;10590;48.154;11.514;2023-08-21T10:01:58;96239.22;;;38.80;23.84
20860;BME280;10590;48.154;11.514;2023-08-21T10:07:21;96232.47;;;37.63;24.82
20860;BME280;10590;48.154;11.514;2023-08-21T10:12:44;96230.50;;;37.93;25.58
20860;BME280;10590;48.154;11.514;2023-08-21T10:18:23;96228.41;;;38.88;23.79
20860;BME280;10590;48.154;11.514;2023-08-21T10:23:47;96226.53;;;38.44;23.87
20860;BME280;10590;48.154;11.514;2023-08-21T10:29:09;96222.22;;;40.17;22.20
20860;BME280;10590;48.154;11.514;2023-08-21T10:34:33;96222.19;;;37.16;25.83
20860;BME280;10590;48.154;11.514;2023-08-21T10:39:56;96223.25;;;39.42;23.53
20860;BME280;10590;48.154;11.514;2023-08-21T10:45:18;96214.25;;;38.56;23.77
20860;BME280;10590;48.154;11.514;2023-08-21T10:50:43;96224.06;;;38.87;22.63
20860;BME280;10590;48.154;11.514;2023-08-21T10:56:06;96218.34;;;38.76;22.87
20860;BME280;10590;48.154;11.514;2023-08-21T11:01:42;96219.00;;;38.50;23.63
20860;BME280;10590;48.154;11.514;2023-08-21T11:07:07;96215.28;;;39.55;23.07
20860;BME280;10590;48.154;11.514;2023-08-21T11:12:28;96223.88;;;39.77;22.85
20860;BME280;10590;48.154;11.514;2023-08-21T11:17:52;96220.72;;;39.90;23.08
20860;BME280;10590;48.154;11.514;2023-08-21T11:23:15;96217.84;;;39.85;22.72
20860;BME280;10590;48.154;11.514;2023-08-21T11:28:38;96221.63;;;39.09;23.07
20860;BME280;10590;48.154;11.514;2023-08-21T11:34:00;96220.28;;;38.35;23.96
20860;BME280;10590;48.154;11.514;2023-08-21T11:39:23;96207.50;;;39.18;23.58
20860;BME280;10590;48.154;11.514;2023-08-21T11:44:51;96215.00;;;39.53;23.20
20860;BME280;10590;48.154;11.514;2023-08-21T11:50:14;96212.94;;;40.00;22.49
20860;BME280;10590;48.154;11.514;2023-08-21T11:55:41;96206.34;;;39.51;22.89
20860;BME280;10590;48.154;11.514;2023-08-21T12:01:04;96198.63;;;39.66;22.92
20860;BME280;10590;48.154;11.514;2023-08-21T12:06:25;96192.41;;;39.83;22.54
20860;BME280;10590;48.154;11.514;2023-08-21T12:11:53;96195.91;;;39.26;22.33
20860;BME280;10590;48.154;11.514;2023-08-21T12:17:15;96194.72;;;37.33;25.30
20860;BME280;10590;48.154;11.514;2023-08-21T12:22:38;96178.94;;;38.88;22.81
20860;BME280;10590;48.154;11.514;2023-08-21T12:28:01;96187.06;;;39.07;22.34
20860;BME280;10590;48.154;11.514;2023-08-21T12:33:23;96186.47;;;37.98;23.46
20860;BME280;10590;48.154;11.514;2023-08-21T12:38:45;96179.56;;;38.98;22.43
20860;BME280;10590;48.154;11.514;2023-08-21T12:44:09;96178.97;;;38.53;23.74
20860;BME280;10590;48.154;11.514;2023-08-21T12:49:31;96162.91;;;39.04;22.64
20860;BME280;10590;48.154;11.514;2023-08-21T12:54:54;96167.13;;;39.66;22.12
20860;BME280;10590;48.154;11.514;2023-08-21T13:00:17;96149.34;;;38.56;22.80
20860;BME280;10590;48.154;11.514;2023-08-21T13:05:39;96145.88;;;38.81;22.86
20860;BME280;10590;48.154;11.514;2023-08-21T13:11:00;96154.13;;;40.26;21.17
20860;BME280;10590;48.154;11.514;2023-08-21T13:16:24;96157.81;;;38.27;23.16
20860;BME280;10590;48.154;11.514;2023-08-21T13:21:46;96150.66;;;37.32;24.78
20860;BME280;10590;48.154;11.514;2023-08-21T13:27:08;96149.56;;;35.67;26.30
20860;BME280;10590;48.154;11.514;2023-08-21T13:32:31;96127.09;;;35.47;25.78
20860;BME280;10590;48.154;11.514;2023-08-21T13:37:52;96131.25;;;34.51;27.94
20860;BME280;10590;48.154;11.514;2023-08-21T13:43:14;96135.66;;;33.59;28.35
20860;BME280;10590;48.154;11.514;2023-08-21T13:48:37;96125.63;;;33.52;29.74
20860;BME280;10590;48.154;11.514;2023-08-21T13:53:59;96126.09;;;33.29;30.65
20860;BME280;10590;48.154;11.514;2023-08-21T13:59:20;96118.78;;;33.13;31.34
20860;BME280;10590;48.154;11.514;2023-08-21T14:04:44;96115.03;;;33.29;30.79
20860;BME280;10590;48.154;11.514;2023-08-21T14:10:07;96111.75;;;33.43;30.10
20860;BME280;10590;48.154;11.514;2023-08-21T14:15:29;96109.72;;;33.97;29.96
20860;BME280;10590;48.154;11.514;2023-08-21T14:20:52;96108.72;;;34.31;29.75
20860;BME280;10590;48.154;11.514;2023-08-21T14:26:14;96108.44;;;33.89;29.83
20860;BME280;10590;48.154;11.514;2023-08-21T14:31:35;96098.63;;;33.66;30.46
20860;BME280;10590;48.154;11.514;2023-08-21T14:36:58;96101.75;;;33.77;32.02
20860;BME280;10590;48.154;11.514;2023-08-21T14:42:20;96086.50;;;33.72;31.04
20860;BME280;10590;48.154;11.514;2023-08-21T14:47:42;96086.06;;;34.14;29.16
20860;BME280;10590;48.154;11.514;2023-08-21T14:53:05;96092.50;;;34.02;29.81
20860;BME280;10590;48.154;11.514;2023-08-21T14:58:26;96083.88;;;33.69;30.42
20860;BME280;10590;48.154;11.514;2023-08-21T15:03:48;96088.25;;;33.48;30.72
20860;BME280;10590;48.154;11.514;2023-08-21T15:09:11;96079.72;;;34.04;29.93
20860;BME280;10590;48.154;11.514;2023-08-21T15:14:33;96078.03;;;33.67;30.10
20860;BME280;10590;48.154;11.514;2023-08-21T15:19:55;96086.31;;;34.74;28.56
20860;BME280;10590;48.154;11.514;2023-08-21T15:25:18;96077.25;;;34.83;28.13
20860;BME280;10590;48.154;11.514;2023-08-21T15:30:40;96072.41;;;34.65;29.27
20860;BME280;10590;48.154;11.514;2023-08-21T15:36:02;96075.50;;;36.06;27.24
20860;BME280;10590;48.154;11.514;2023-08-21T15:41:25;96067.25;;;36.84;26.13
20860;BME280;10590;48.154;11.514;2023-08-21T15:46:47;96077.75;;;37.18;25.71
20860;BME280;10590;48.154;11.514;2023-08-21T15:52:08;96054.72;;;37.03;25.81
20860;BME280;10590;48.154;11.514;2023-08-21T15:57:33;96069.47;;;36.80;26.48
20860;BME280;10590;48.154;11.514;2023-08-21T16:02:54;96059.69;;;36.99;26.70
20860;BME280;10590;48.154;11.514;2023-08-21T16:08:16;96053.19;;;35.92;27.83
20860;BME280;10590;48.154;11.514;2023-08-21T16:13:39;96048.31;;;36.58;26.35
20860;BME280;10590;48.154;11.514;2023-08-21T16:19:01;96043.44;;;35.96;27.83
20860;BME280;10590;48.154;11.514;2023-08-21T16:24:23;96031.28;;;35.61;27.95
20860;BME280;10590;48.154;11.514;2023-08-21T16:29:47;96039.78;;;34.69;28.46
20860;BME280;10590;48.154;11.514;2023-08-21T16:35:08;96037.31;;;34.71;29.38
20860;BME280;10590;48.154;11.514;2023-08-21T16:40:30;96036.97;;;34.24;30.45
20860;BME280;10590;48.154;11.514;2023-08-21T16:45:54;96045.63;;;33.36;31.06
20860;BME280;10590;48.154;11.514;2023-08-21T16:51:16;96050.63;;;32.98;32.41
20860;BME280;10590;48.154;11.514;2023-08-21T16:56:38;96044.91;;;32.57;32.78
20860;BME280;10590;48.154;11.514;2023-08-21T17:02:01;96044.13;;;32.22;33.70
20860;BME280;10590;48.154;11.514;2023-08-21T17:07:22;96039.06;;;32.21;34.05
20860;BME280;10590;48.154;11.514;2023-08-21T17:12:44;96033.53;;;32.21;34.25
20860;BME280;10590;48.154;11.514;2023-08-21T17:18:08;96036.13;;;31.90;35.53
20860;BME280;10590;48.154;11.514;2023-08-21T17:23:29;96026.22;;;31.54;35.71
20860;BME280;10590;48.154;11.514;2023-08-21T17:28:51;96041.66;;;31.39;37.01
20860;BME280;10590;48.154;11.514;2023-08-21T17:34:15;96033.44;;;31.10;37.07
20860;BME280;10590;48.154;11.514;2023-08-21T17:39:40;96014.97;;;30.82;38.95
20860;BME280;10590;48.154;11.514;2023-08-21T17:45:01;96032.94;;;30.28;43.65
20860;BME280;10590;48.154;11.514;2023-08-21T17:50:26;96042.44;;;30.11;45.17
20860;BME280;10590;48.154;11.514;2023-08-21T17:55:47;96038.31;;;29.70;42.98
20860;BME280;10590;48.154;11.514;2023-08-21T18:01:09;96050.38;;;29.04;45.07
20860;BME280;10590;48.154;11.514;2023-08-21T18:06:32;96050.75;;;29.23;44.09
20860;BME280;10590;48.154;11.514;2023-08-21T18:11:54;96058.09;;;29.09;44.67
20860;BME280;10590;48.154;11.514;2023-08-21T18:17:15;96059.00;;;29.23;47.28
20860;BME280;10590;48.154;11.514;2023-08-21T18:22:38;96049.66;;;29.00;45.20
20860;BME280;10590;48.154;11.514;2023-08-21T18:28:00;96031.59;;;28.60;46.12
20860;BME280;10590;48.154;11.514;2023-08-21T18:33:22;96072.28;;;28.88;46.83
20860;BME280;10590;48.154;11.514;2023-08-21T18:38:45;96072.34;;;28.65;47.49
20860;BME280;10590;48.154;11.514;2023-08-21T18:44:07;96067.00;;;28.34;49.31
20860;BME280;10590;48.154;11.514;2023-08-21T18:49:29;96085.16;;;28.28;48.77
20860;BME280;10590;48.154;11.514;2023-08-21T18:54:52;96065.31;;;27.40;50.91
20860;BME280;10590;48.154;11.514;2023-08-21T19:00:15;96090.56;;;27.27;51.24
20860;BME280;10590;48.154;11.514;2023-08-21T19:05:38;96089.16;;;27.43;50.58
20860;BME280;10590;48.154;11.514;2023-08-21T19:11:01;96069.34;;;27.32;52.79
20860;BME280;10590;48.154;11.514;2023-08-21T19:16:26;96092.16;;;27.25;50.85
20860;BME280;10590;48.154;11.514;2023-08-21T19:21:48;96097.66;;;26.91;52.20
20860;BME280;10590;48.154;11.514;2023-08-21T19:27:12;96091.00;;;26.92;53.17
20860;BME280;10590;48.154;11.514;2023-08-21T19:32:34;96097.41;;;26.75;54.08
20860;BME280;10590;48.154;11.514;2023-08-21T19:37:56;96106.81;;;26.74;54.05
20860;BME280;10590;48.154;11.514;2023-08-21T19:43:19;96108.38;;;26.75;54.44
20860;BME280;10590;48.154;11.514;2023-08-21T19:48:41;96107.63;;;26.71;54.73
20860;BME280;10590;48.154;11.514;2023-08-21T19:54:03;96107.38;;;26.58;55.81
20860;BME280;10590;48.154;11.514;2023-08-21T19:59:26;96100.50;;;26.43;55.90
20860;BME280;10590;48.154;11.514;2023-08-21T20:04:48;96097.91;;;26.25;57.25
20860;BME280;10590;48.154;11.514;2023-08-21T20:10:12;96101.91;;;26.17;57.31
20860;BME280;10590;48.154;11.514;2023-08-21T20:15:38;96105.06;;;26.12;58.50
20860;BME280;10590;48.154;11.514;2023-08-21T20:20:59;96105.66;;;25.85;57.98
20860;BME280;10590;48.154;11.514;2023-08-21T20:26:21;96080.38;;;25.70;57.69
20860;BME280;10590;48.154;11.514;2023-08-21T20:31:45;96105.78;;;25.67;58.46
20860;BME280;10590;48.154;11.514;2023-08-21T20:37:07;96100.72;;;25.59;58.61
20860;BME280;10590;48.154;11.514;2023-08-21T20:42:29;96105.13;;;25.42;59.57
20860;BME280;10590;48.154;11.514;2023-08-21T20:47:52;96100.59;;;25.11;61.23
20860;BME280;10590;48.154;11.514;2023-08-21T20:53:14;96107.97;;;25.24;60.90
20860;BME280;10590;48.154;11.514;2023-08-21T20:58:36;96095.56;;;25.05;61.75
20860;BME280;10590;48.154;11.514;2023-08-21T21:04:00;96095.53;;;25.16;62.82
20860;BME280;10590;48.154;11.514;2023-08-21T21:09:21;96101.75;;;25.13;62.57
20860;BME280;10590;48.154;11.514;2023-08-21T21:14:43;96103.38;;;24.89;62.81
20860;BME280;10590;48.154;11.514;2023-08-21T21:20:07;96099.19;;;24.67;63.98
20860;BME280;10590;48.154;11.514;2023-08-21T21:25:29;96105.41;;;24.67;64.16
20860;BME280;10590;48.154;11.514;2023-08-21T21:30:55;96098.03;;;24.61;64.70
20860;BME280;10590;48.154;11.514;2023-08-21T21:36:18;96094.94;;;24.55;64.65
20860;BME280;10590;48.154;11.514;2023-08-21T21:41:40;96074.69;;;24.42;65.22
20860;BME280;10590;48.154;11.514;2023-08-21T21:47:01;96080.13;;;24.21;66.15
20860;BME280;10590;48.154;11.514;2023-08-21T21:52:24;96086.00;;;24.44;65.63
20860;BME280;10590;48.154;11.514;2023-08-21T21:57:46;96082.88;;;24.03;66.58
20860;BME280;10590;48.154;11.514;2023-08-21T22:03:08;96082.88;;;24.21;66.28
20860;BME280;10590;48.154;11.514;2023-08-21T22:08:31;96091.47;;;23.73;68.36
20860;BME280;10590;48.154;11.514;2023-08-21T22:13:53;96086.00;;;23.94;67.45
20860;BME280;10590;48.154;11.514;2023-08-21T22:19:14;96082.09;;;24.17;67.44
20860;BME280;10590;48.154;11.514;2023-08-21T22:24:38;96083.28;;;24.05;66.58
20860;BME280;10590;48.154;11.514;2023-08-21T22:29:59;96095.34;;;23.93;67.73
20860;BME280;10590;48.154;11.514;2023-08-21T22:35:21;96070.03;;;23.89;67.13
20860;BME280;10590;48.154;11.514;2023-08-21T22:40:44;96086.41;;;23.78;67.66
20860;BME280;10590;48.154;11.514;2023-08-21T22:46:06;96073.94;;;23.60;69.10
20860;BME280;10590;48.154;11.514;2023-08-21T22:51:28;96079.28;;;23.38;70.71
20860;BME280;10590;48.154;11.514;2023-08-21T22:56:51;96067.59;;;23.16;69.64
20860;BME280;10590;48.154;11.514;2023-08-21T23:02:12;96068.75;;;23.15;70.31
20860;BME280;10590;48.154;11.514;2023-08-21T23:07:34;96055.16;;;23.19;69.14
20860;BME280;10590;48.154;11.514;2023-08-21T23:12:57;96062.84;;;22.88;71.17
20860;BME280;10590;48.154;11.514;2023-08-21T23:18:19;96070.28;;;23.06;70.32
20860;BME280;10590;48.154;11.514;2023-08-21T23:23:41;96069.16;;;23.21;69.84
20860;BME280;10590;48.154;11.514;2023-08-21T23:29:04;96046.59;;;23.20;69.32
20860;BME280;10590;48.154;11.514;2023-08-21T23:34:26;96054.75;;;23.17;69.66
20860;BME280;10590;48.154;11.514;2023-08-21T23:39:47;96054.34;;;23.15;69.54
20860;BME280;10590;48.154;11.514;2023-08-21T23:45:11;96057.06;;;23.11;69.95
20860;BME280;10590;48.154;11.514;2023-08-21T23:50:33;96045.81;;;23.20;69.44
20860;BME280;10590;48.154;11.514;2023-08-21T23:55:55;96043.41;;;22.86;71.62
